Time;durP1;ratioP1;P1;durP2;ratioP2;P2;SDS_P1;SDS_P2;PMS_P1;PMS_P2;Temp;Humidity;BMP_temperature;BMP_pressure;BME280_temperature;BME280_humidity;BME280_pressure;Samples;Min_cycle;Max_cycle;Signal;HPM_P1;HPM_P2
2022/07/14 00:01:13;;;;;;;3.58;0.82;;;;;;;23.86;55.37;100933.09;4989311;28;20046;-83
2022/07/14 00:03:41;;;;;;;4.60;1.07;;;;;;;23.82;55.95;100934.63;4996532;28;20035;-83
2022/07/14 00:06:07;;;;;;;5.25;0.85;;;;;;;23.78;55.93;100929.94;5000080;28;20345;-83
2022/07/14 00:08:33;;;;;;;5.70;1.02;;;;;;;23.76;56.35;100924.78;4998579;28;20039;-83
2022/07/14 00:10:59;;;;;;;6.95;1.42;;;;;;;23.74;55.81;100926.88;5205304;22;20043;-83
2022/07/14 00:13:24;;;;;;;6.40;1.20;;;;;;;23.72;55.68;100917.34;4981081;28;20023;-85
2022/07/14 00:15:50;;;;;;;2.70;1.15;;;;;;;23.63;56.00;100925.03;4972071;28;20039;-86
2022/07/14 00:18:16;;;;;;;4.97;1.25;;;;;;;23.63;56.24;100927.75;4946153;29;20035;-90
2022/07/14 00:20:45;;;;;;;1.80;1.10;;;;;;;23.60;56.54;100925.47;4963413;29;20034;-89
2022/07/14 00:23:11;;;;;;;2.45;1.20;;;;;;;23.69;56.26;100924.06;4963244;29;20422;-91
2022/07/14 00:25:37;;;;;;;3.40;1.20;;;;;;;23.63;56.21;100925.03;4945148;29;20039;-87
2022/07/14 00:28:05;;;;;;;4.53;1.00;;;;;;;23.57;56.52;100926.78;4962837;29;20045;-86
2022/07/14 00:33:21;;;;;;;6.35;2.58;;;;;;;23.58;57.61;100923.03;4980705;28;20539;-86
2022/07/14 00:35:48;;;;;;;29.52;19.67;;;;;;;23.58;57.17;100922.19;4974776;28;20102;-84
2022/07/14 00:38:13;;;;;;;6.43;1.20;;;;;;;23.61;57.27;100921.72;4967222;28;20062;-87
2022/07/14 00:40:39;;;;;;;3.35;1.30;;;;;;;23.62;57.42;100920.69;4980853;28;20066;-87
2022/07/14 00:43:04;;;;;;;3.03;1.10;;;;;;;23.59;57.73;100923.84;4962215;28;20164;-86
2022/07/14 00:45:30;;;;;;;4.30;1.23;;;;;;;23.62;57.85;100923.38;4979138;28;20500;-86
2022/07/14 00:47:56;;;;;;;5.72;1.50;;;;;;;23.57;57.83;100928.66;4962279;28;20035;-87
2022/07/14 00:50:21;;;;;;;8.55;1.42;;;;;;;23.51;58.75;100924.22;4979807;28;20038;-87
2022/07/14 00:52:49;;;;;;;6.30;1.42;;;;;;;23.31;59.77;100938.06;4978602;28;20043;-85
2022/07/14 00:55:15;;;;;;;3.13;1.60;;;;;;;23.05;61.85;100930.41;4979204;28;20034;-86
2022/07/14 00:57:47;;;;;;;4.05;1.45;;;;;;;22.96;63.27;100929.94;4961679;28;20560;-88
2022/07/14 01:00:17;;;;;;;6.28;1.70;;;;;;;22.95;63.54;100933.69;4978326;28;20047;-84
2022/07/14 01:02:50;;;;;;;4.05;1.67;;;;;;;22.98;64.04;100929.69;4981171;28;20045;-86
2022/07/14 01:05:17;;;;;;;5.97;2.03;;;;;;;23.05;63.89;100933.94;5095589;23;20058;-86
2022/07/14 01:07:42;;;;;;;1.98;1.30;;;;;;;23.16;62.76;100930.44;4997692;28;20037;-87
2022/07/14 01:10:09;;;;;;;2.50;1.48;;;;;;;23.06;63.11;100927.50;5016826;28;20037;-85
2022/07/14 01:12:44;;;;;;;5.80;1.52;;;;;;;23.10;62.11;100927.84;5016783;28;20068;-85
2022/07/14 01:15:10;;;;;;;5.25;1.27;;;;;;;23.15;62.30;100927.97;4999280;28;20124;-84
2022/07/14 01:17:37;;;;;;;5.82;1.30;;;;;;;23.14;62.45;100920.88;5017411;28;20037;-84
2022/07/14 01:20:06;;;;;;;9.23;1.70;;;;;;;23.08;63.00;100927.25;5016917;28;20033;-87
2022/07/14 01:22:32;;;;;;;2.10;1.30;;;;;;;23.15;62.56;100922.53;5015635;28;20037;-85
2022/07/14 01:24:57;;;;;;;5.00;1.30;;;;;;;23.06;63.50;100924.78;5017603;28;20149;-85
2022/07/14 01:27:23;;;;;;;1.85;1.25;;;;;;;23.02;62.99;100923.59;5026763;28;20041;-82
2022/07/14 01:29:51;;;;;;;4.68;1.20;;;;;;;23.06;63.01;100923.97;5025357;28;20106;-84
2022/07/14 01:43:42;;;;;;;3.88;1.35;;;;;;;23.05;60.12;100927.72;3251547;23;20046;-88
2022/07/14 01:49:20;;;;;;;7.38;1.20;;;;;;;23.06;60.54;100913.97;5188052;22;20052;-88
2022/07/14 01:52:25;;;;;;;1.63;1.23;;;;;;;23.21;59.45;100918.06;5003987;28;20046;-89
2022/07/14 02:04:25;;;;;;;5.20;1.40;;;;;;;22.74;62.48;100907.22;5016949;28;20049;-89
2022/07/14 02:07:20;;;;;;;6.30;1.73;;;;;;;22.58;63.41;100905.16;5010897;28;20062;-89
2022/07/14 02:13:37;;;;;;;2.40;1.30;;;;;;;22.44;64.81;100895.59;4946405;28;20043;-90
2022/07/14 02:16:27;;;;;;;5.00;1.55;;;;;;;22.41;65.47;100893.34;5133212;22;20066;-89
2022/07/14 02:20:02;;;;;;;9.55;1.60;;;;;;;22.31;66.23;100887.69;4979138;28;20039;-87
2022/07/14 02:33:40;;;;;;;5.82;1.42;;;;;;;22.13;67.44;100875.91;5089643;23;20030;-88
2022/07/14 02:36:07;;;;;;;5.95;1.52;;;;;;;22.21;67.03;100879.31;5016267;28;20058;-90
2022/07/14 02:39:00;;;;;;;3.72;1.25;;;;;;;22.30;66.45;100876.09;5002599;28;20042;-90
2022/07/14 02:41:33;;;;;;;2.40;1.13;;;;;;;22.33;66.02;100864.81;4985617;28;20077;-89
2022/07/14 02:50:19;;;;;;;3.22;1.55;;;;;;;22.38;65.07;100862.25;4996120;28;20054;-90
2022/07/14 02:53:29;;;;;;;3.08;1.33;;;;;;;22.44;64.27;100864.00;4984611;28;20065;-89
2022/07/14 02:56:50;;;;;;;4.87;1.40;;;;;;;22.38;63.63;100864.13;4997835;28;20057;-87
2022/07/14 02:59:33;;;;;;;9.10;1.55;;;;;;;22.38;63.97;100864.13;4956116;28;20197;-90
2022/07/14 03:02:33;;;;;;;2.17;1.42;;;;;;;22.56;63.17;100869.44;5034199;23;20059;-88
2022/07/14 03:07:56;;;;;;;5.97;1.58;;;;;;;22.90;61.31;100867.88;5454016;22;20100;-89
2022/07/14 03:13:47;;;;;;;3.25;1.25;;;;;;;22.61;61.69;100872.25;5083163;22;20058;-89
2022/07/14 03:16:51;;;;;;;4.15;1.45;;;;;;;22.49;62.11;100866.03;5005632;23;20065;-89
2022/07/14 03:23:14;;;;;;;2.20;1.45;;;;;;;22.39;61.94;100857.66;3842920;23;20054;-89
2022/07/14 03:36:02;;;;;;;1.02;0.93;;;;;;;22.38;61.98;100866.81;4962522;29;20082;-88
2022/07/14 03:44:01;;;;;;;7.30;2.17;;;;;;;22.44;61.32;100860.47;4020671;26;20078;-89
2022/07/14 03:49:46;;;;;;;9.73;1.33;;;;;;;22.29;61.92;100874.44;5290566;22;20062;-87
2022/07/14 03:55:22;;;;;;;3.95;1.30;;;;;;;22.25;61.48;100877.81;5108309;22;20066;-88
2022/07/14 03:58:24;;;;;;;4.30;1.63;;;;;;;22.17;62.46;100874.38;5020088;22;20130;-88
2022/07/14 04:01:19;;;;;;;2.30;1.20;;;;;;;22.14;62.50;100866.75;4999116;28;20038;-88
2022/07/14 04:03:48;;;;;;;3.60;1.30;;;;;;;22.18;61.87;100872.50;5022899;23;20043;-86
2022/07/14 04:06:41;;;;;;;7.57;1.90;;;;;;;22.06;62.35;100868.94;4999503;28;20041;-88
2022/07/14 04:12:02;;;;;;;6.80;1.50;;;;;;;22.02;62.37;100879.38;4961565;26;20035;-87
2022/07/14 04:15:26;;;;;;;5.65;1.50;;;;;;;22.04;62.35;100871.88;4994189;28;20054;-90
2022/07/14 04:18:30;;;;;;;3.20;1.45;;;;;;;22.11;62.07;100871.78;4980774;28;20059;-88
2022/07/14 04:21:36;;;;;;;2.63;1.58;;;;;;;22.19;62.73;100882.25;4967525;28;20047;-88
2022/07/14 04:24:50;;;;;;;5.18;1.45;;;;;;;22.27;61.81;100883.81;5045009;22;20164;-86
2022/07/14 04:27:34;;;;;;;2.10;1.40;;;;;;;22.33;61.81;100885.59;5009923;28;20070;-86
2022/07/14 04:30:15;;;;;;;12.85;1.75;;;;;;;22.44;61.67;100877.50;5015653;28;20090;-86
2022/07/14 04:38:34;;;;;;;3.83;1.52;;;;;;;22.46;61.15;100885.41;5051746;22;20050;-89
2022/07/14 04:41:35;;;;;;;1.75;1.52;;;;;;;22.50;61.32;100883.91;5011054;28;20373;-87
2022/07/14 04:44:04;;;;;;;5.65;1.58;;;;;;;22.53;62.03;100883.44;4962883;28;20111;-87
2022/07/14 04:46:37;;;;;;;4.63;1.83;;;;;;;22.57;61.61;100879.22;4943012;29;20047;-90
2022/07/14 04:52:49;;;;;;;2.67;1.42;;;;;;;22.78;60.82;100883.25;4997231;28;20074;-89
2022/07/14 04:55:38;;;;;;;8.20;1.52;;;;;;;23.13;59.63;100893.03;5015429;28;20053;-89
2022/07/14 04:58:47;;;;;;;4.32;1.40;;;;;;;23.21;59.27;100893.72;5014547;28;20057;-89
2022/07/14 05:01:44;;;;;;;4.57;1.70;;;;;;;23.41;58.75;100894.22;5003423;28;20043;-89
2022/07/14 05:07:13;;;;;;;5.35;1.40;;;;;;;23.60;58.23;100895.72;1300101;26;20035;-91
2022/07/14 05:09:57;;;;;;;6.80;1.48;;;;;;;23.45;58.83;100890.00;4981634;28;20046;-90
2022/07/14 05:32:10;;;;;;;4.50;1.95;;;;;;;23.95;57.41;100912.72;4976469;28;20055;-89
2022/07/14 05:35:32;;;;;;;4.40;1.73;;;;;;;23.98;57.91;100914.94;5468527;23;20063;-85
2022/07/14 05:38:37;;;;;;;11.60;1.67;;;;;;;24.19;57.79;100911.56;4938000;29;20056;-89
2022/07/14 05:44:52;;;;;;;7.18;1.85;;;;;;;24.53;56.59;100914.34;3007595;26;20050;-89
2022/07/14 05:51:08;;;;;;;3.80;1.70;;;;;;;24.88;54.11;100915.00;5066509;23;20035;-88
2022/07/14 05:57:34;;;;;;;8.73;2.30;;;;;;;25.44;53.41;100918.56;5008504;28;20018;-89
2022/07/14 06:00:52;;;;;;;10.50;1.83;;;;;;;25.62;53.21;100912.88;5010451;28;20030;-92
2022/07/14 06:04:20;;;;;;;10.98;1.75;;;;;;;25.79;52.20;100921.78;4899455;29;20036;-89
2022/07/14 06:07:44;;;;;;;9.77;1.92;;;;;;;26.22;51.09;100918.22;4935716;29;20067;-84
2022/07/14 06:10:21;;;;;;;2.75;1.80;;;;;;;26.55;50.42;100915.31;4934346;29;20064;-85
2022/07/14 06:13:04;;;;;;;8.70;2.03;;;;;;;26.69;49.32;100907.53;4923345;29;20057;-84
2022/07/14 06:15:32;;;;;;;9.90;1.73;;;;;;;27.07;47.61;100903.81;4911093;29;20052;-81
2022/07/14 06:18:22;;;;;;;11.65;2.03;;;;;;;27.49;47.29;100917.44;4900317;29;20040;-84
2022/07/14 06:21:05;;;;;;;3.17;1.50;;;;;;;27.67;46.09;100915.09;4952034;28;20626;-83
2022/07/14 06:23:46;;;;;;;5.18;1.80;;;;;;;27.82;45.97;100911.59;5007528;28;20046;-82
2022/07/14 06:26:16;;;;;;;6.82;1.92;;;;;;;28.04;45.10;100914.94;4998332;28;20051;-84
2022/07/14 06:28:48;;;;;;;5.30;1.70;;;;;;;28.17;45.31;100928.09;4959875;28;20106;-80
2022/07/14 06:31:17;;;;;;;11.40;2.13;;;;;;;28.62;44.12;100915.63;4990876;28;20077;-82
2022/07/14 06:33:48;;;;;;;9.48;2.08;;;;;;;29.47;41.97;100922.16;5045801;23;20063;-83
2022/07/14 06:36:39;;;;;;;5.85;1.67;;;;;;;29.86;41.35;100912.25;4990238;28;20086;-80
2022/07/14 06:39:07;;;;;;;8.27;2.10;;;;;;;30.35;39.95;100912.22;4973839;28;20046;-83
2022/07/14 06:41:39;;;;;;;13.70;2.40;;;;;;;31.22;38.30;100933.19;4958223;28;20082;-81
2022/07/14 06:44:28;;;;;;;5.53;1.63;;;;;;;30.71;39.38;100931.97;4989068;28;20042;-82
2022/07/14 06:46:54;;;;;;;6.38;2.10;;;;;;;30.85;38.99;100932.97;4975485;28;20070;-82
2022/07/14 06:49:25;;;;;;;5.25;2.10;;;;;;;30.15;39.58;100924.13;4960776;28;20114;-82
2022/07/14 06:51:56;;;;;;;8.32;1.75;;;;;;;30.49;38.60;100934.34;4974976;28;20066;-82
2022/07/14 06:54:27;;;;;;;7.60;2.05;;;;;;;31.01;38.19;100926.28;4973623;28;20061;-81
2022/07/14 06:56:55;;;;;;;10.23;2.00;;;;;;;30.40;39.02;100930.50;4984720;28;20532;-82
2022/07/14 06:59:35;;;;;;;5.37;1.70;;;;;;;30.48;38.78;100932.69;4974060;28;20031;-86
2022/07/14 07:02:16;;;;;;;11.40;1.92;;;;;;;30.72;38.08;100923.47;4985370;28;20066;-81
2022/07/14 07:04:44;;;;;;;11.68;2.20;;;;;;;31.13;36.72;100932.19;4967839;28;20043;-80
2022/07/14 07:07:12;;;;;;;6.00;2.33;;;;;;;30.70;37.47;100930.31;4968120;28;20037;-79
2022/07/14 07:09:37;;;;;;;7.35;1.63;;;;;;;32.21;34.98;100928.78;4983863;28;20035;-79
2022/07/14 07:12:06;;;;;;;20.13;1.95;;;;;;;32.48;34.18;100933.56;4983177;28;20039;-80
2022/07/14 07:14:31;;;;;;;6.45;1.60;;;;;;;31.68;36.33;100930.00;4975851;28;20058;-78
2022/07/14 07:16:58;;;;;;;5.18;1.70;;;;;;;32.29;34.93;100930.00;4963827;28;20096;-82
2022/07/14 07:19:26;;;;;;;8.27;1.75;;;;;;;33.06;33.21;100928.53;4948817;28;20076;-81
2022/07/14 07:21:52;;;;;;;5.45;1.80;;;;;;;34.56;30.97;100933.19;4969985;28;20069;-81
2022/07/14 07:24:18;;;;;;;4.30;1.70;;;;;;;34.61;31.26;100935.84;4954903;28;20471;-80
2022/07/14 07:26:45;;;;;;;6.30;1.40;;;;;;;35.15;30.40;100932.84;4963267;28;20092;-80
2022/07/14 07:29:14;;;;;;;6.53;2.20;;;;;;;35.71;29.16;100934.06;4956450;28;20042;-79
2022/07/14 07:31:42;;;;;;;8.65;1.70;;;;;;;34.96;29.70;100932.22;4983758;28;20563;-79
2022/07/14 07:34:08;;;;;;;4.13;1.65;;;;;;;33.59;31.65;100915.19;4939627;28;20042;-80
2022/07/14 07:36:33;;;;;;;8.07;1.73;;;;;;;33.93;31.77;100923.03;4989971;28;20030;-80
2022/07/14 07:39:11;;;;;;;27.98;3.47;;;;;;;33.86;31.55;100908.88;4997759;28;20034;-81
2022/07/14 07:41:37;;;;;;;10.55;2.20;;;;;;;33.51;32.29;100912.34;4964129;28;20044;-79
2022/07/14 07:44:08;;;;;;;11.23;1.80;;;;;;;34.10;31.52;100914.97;4950957;28;20045;-78
2022/07/14 07:46:34;;;;;;;12.57;1.70;;;;;;;33.50;32.47;100908.78;4992987;28;20065;-79
2022/07/14 07:49:03;;;;;;;10.40;1.92;;;;;;;33.94;31.55;100905.38;4979910;28;20034;-82
2022/07/14 07:51:28;;;;;;;6.97;1.42;;;;;;;35.49;30.10;100915.66;4974477;28;20054;-78
2022/07/14 07:53:55;;;;;;;4.22;1.60;;;;;;;34.73;30.06;100912.13;4995215;28;20030;-80
2022/07/14 07:56:20;;;;;;;6.40;1.67;;;;;;;34.91;29.34;100909.47;5002679;28;20026;-79
2022/07/14 07:58:50;;;;;;;7.15;1.60;;;;;;;34.58;29.89;100898.69;4982508;28;20085;-80
2022/07/14 08:01:19;;;;;;;8.98;1.52;;;;;;;34.62;30.35;100896.16;4957603;28;20110;-85
2022/07/14 08:03:51;;;;;;;7.30;1.40;;;;;;;35.56;29.27;100895.88;4969254;28;20061;-83
2022/07/14 08:06:16;;;;;;;8.88;1.70;;;;;;;34.38;30.41;100892.88;4939877;28;20110;-79
2022/07/14 08:08:42;;;;;;;8.70;1.50;;;;;;;34.94;30.31;100901.38;4983238;28;20066;-79
2022/07/14 08:11:08;;;;;;;6.45;1.50;;;;;;;34.54;30.80;100894.94;4978611;28;20062;-82
2022/07/14 08:13:47;;;;;;;7.80;1.65;;;;;;;34.02;31.27;100888.16;5000401;28;20045;-81
2022/07/14 08:16:20;;;;;;;9.85;1.55;;;;;;;34.28;31.32;100894.75;4991902;28;20043;-82
2022/07/14 08:18:46;;;;;;;4.72;1.30;;;;;;;34.93;29.87;100894.28;4948300;28;20507;-82
2022/07/14 08:21:23;;;;;;;4.57;1.52;;;;;;;34.91;29.97;100896.50;4973767;28;20094;-82
2022/07/14 08:24:11;;;;;;;8.02;1.73;;;;;;;34.81;30.53;100902.28;4980602;28;20026;-82
2022/07/14 08:27:48;;;;;;;10.10;1.55;;;;;;;34.85;29.93;100897.78;5014116;28;20089;-81
2022/07/14 08:30:35;;;;;;;4.60;1.33;;;;;;;34.75;30.79;100892.53;4976509;28;20083;-82
2022/07/14 08:33:13;;;;;;;6.22;1.38;;;;;;;35.18;29.95;100896.38;4959955;28;20066;-81
2022/07/14 08:35:42;;;;;;;1.52;1.08;;;;;;;35.59;28.91;100889.75;4969491;28;20059;-80
2022/07/14 08:38:24;;;;;;;4.30;1.10;;;;;;;36.26;27.43;100891.00;5017542;23;20062;-83
2022/07/14 08:40:50;;;;;;;4.88;1.50;;;;;;;36.35;26.97;100890.19;4948295;28;20059;-82
2022/07/14 08:43:31;;;;;;;6.05;1.30;;;;;;;36.44;26.41;100891.00;4960187;28;20050;-82
2022/07/14 08:46:03;;;;;;;4.95;1.10;;;;;;;36.43;26.93;100892.13;4990628;28;20078;-77
2022/07/14 08:48:36;;;;;;;5.35;1.20;;;;;;;36.04;27.41;100899.41;4976051;28;20072;-79
2022/07/14 08:51:11;;;;;;;7.40;1.50;;;;;;;35.46;27.76;100890.66;4961541;28;20062;-80
2022/07/14 08:53:44;;;;;;;5.90;1.40;;;;;;;35.73;28.07;100894.00;4975228;28;20059;-79
2022/07/14 08:56:11;;;;;;;3.97;1.35;;;;;;;35.53;28.63;100891.00;4977877;28;20031;-80
2022/07/14 08:58:41;;;;;;;2.67;1.48;;;;;;;35.75;28.16;100883.47;4962306;28;20030;-81
2022/07/14 09:01:14;;;;;;;16.15;1.70;;;;;;;35.34;28.97;100882.97;4971426;28;20042;-79
2022/07/14 09:03:40;;;;;;;5.25;1.48;;;;;;;34.94;29.12;100884.88;4962750;28;20043;-80
2022/07/14 09:06:06;;;;;;;5.35;1.27;;;;;;;35.99;27.66;100874.75;4949579;28;20038;-80
2022/07/14 09:08:55;;;;;;;6.93;1.38;;;;;;;36.31;27.28;100872.66;4960586;28;20049;-79
2022/07/14 09:11:28;;;;;;;7.07;2.03;;;;;;;36.15;27.25;100873.16;4949101;29;20039;-80
2022/07/14 09:14:12;;;;;;;7.57;1.38;;;;;;;35.94;26.83;100871.31;4969765;29;20440;-82
2022/07/14 09:16:47;;;;;;;8.07;1.55;;;;;;;36.27;26.10;100873.31;4984945;28;20043;-81
2022/07/14 09:19:35;;;;;;;9.98;1.35;;;;;;;36.31;26.06;100865.19;4976011;28;20044;-83
2022/07/14 09:22:06;;;;;;;5.10;1.03;;;;;;;36.41;26.02;100866.81;4939789;28;20040;-82
2022/07/14 09:24:54;;;;;;;4.00;1.35;;;;;;;36.24;26.46;100862.09;4987964;28;20367;-81
2022/07/14 09:27:20;;;;;;;11.35;1.45;;;;;;;36.04;26.22;100863.53;4981738;28;20041;-80
2022/07/14 09:29:59;;;;;;;9.60;1.50;;;;;;;35.85;26.15;100871.31;4972519;28;20113;-80
2022/07/14 09:32:43;;;;;;;7.57;1.23;;;;;;;36.16;26.29;100866.47;4950840;28;20038;-80
2022/07/14 09:35:11;;;;;;;10.45;1.55;;;;;;;36.36;25.98;100864.22;4982459;28;20045;-80
2022/07/14 09:37:46;;;;;;;6.75;1.35;;;;;;;36.59;25.84;100851.88;4965200;28;20115;-82
2022/07/14 09:40:25;;;;;;;3.25;1.42;;;;;;;36.83;25.68;100865.94;4988852;28;20436;-84
2022/07/14 09:42:59;;;;;;;4.47;1.30;;;;;;;36.42;26.23;100860.16;4953164;28;20068;-79
2022/07/14 09:45:33;;;;;;;4.07;1.40;;;;;;;37.08;25.26;100859.56;4986338;28;20038;-79
2022/07/14 09:48:14;;;;;;;9.95;1.40;;;;;;;36.87;25.08;100860.56;4992842;28;20039;-79
2022/07/14 09:51:00;;;;;;;9.45;1.58;;;;;;;36.28;25.34;100858.38;4972208;28;20131;-84
2022/07/14 09:53:31;;;;;;;7.78;1.67;;;;;;;36.27;25.49;100856.75;4968540;28;20035;-79
2022/07/14 09:56:07;;;;;;;11.63;1.60;;;;;;;36.15;25.27;100851.06;4968995;28;20464;-81
2022/07/14 09:58:44;;;;;;;9.77;1.20;;;;;;;36.33;25.33;100853.84;4970593;28;20098;-79
2022/07/14 10:01:18;;;;;;;5.00;1.20;;;;;;;36.13;25.13;100847.81;4969762;28;20448;-80
2022/07/14 10:03:51;;;;;;;9.65;1.30;;;;;;;36.46;24.55;100844.56;4969153;28;20069;-81
2022/07/14 10:06:20;;;;;;;6.65;1.20;;;;;;;36.46;24.54;100847.31;4951174;28;20039;-81
2022/07/14 10:08:59;;;;;;;4.15;1.27;;;;;;;36.16;24.74;100855.44;4968925;28;20074;-84
2022/07/14 10:11:36;;;;;;;5.93;1.38;;;;;;;35.99;24.94;100846.34;4985228;28;20408;-80
2022/07/14 10:14:08;;;;;;;4.82;1.08;;;;;;;36.22;24.22;100845.06;4971527;28;20034;-82
2022/07/14 10:16:38;;;;;;;1.67;1.08;;;;;;;35.92;24.47;100846.00;4976452;28;20035;-84
2022/07/14 10:19:16;;;;;;;8.88;1.48;;;;;;;35.64;25.37;100848.22;4994695;28;20074;-89
2022/07/14 10:22:19;;;;;;;12.27;1.55;;;;;;;36.04;26.40;100827.66;4996051;28;20073;-87
2022/07/14 10:30:46;;;;;;;7.93;1.35;;;;;;;36.39;25.56;100824.91;5194293;22;20046;-87
2022/07/14 10:42:20;;;;;;;;;;;;;;;;;;;;;
2022/07/14 10:49:08;;;;;;;5.53;1.30;;;;;;;35.94;25.58;100805.91;4694833;26;20043;-91
2022/07/14 10:52:53;;;;;;;4.75;1.63;;;;;;;35.89;25.54;100786.75;4997298;28;20045;-90
2022/07/14 10:55:53;;;;;;;6.80;1.52;;;;;;;35.65;25.68;100790.00;4960677;29;20078;-93
2022/07/14 10:58:48;;;;;;;4.05;1.30;;;;;;;36.32;25.25;100791.47;4965937;29;20054;-89
2022/07/14 11:02:24;;;;;;;5.03;1.35;;;;;;;36.26;25.01;100783.34;4966397;29;20058;-92
2022/07/14 11:09:29;;;;;;;2.33;1.40;;;;;;;36.21;25.15;100780.75;5060299;23;20122;-89
2022/07/14 11:18:30;;;;;;;3.13;1.23;;;;;;;36.75;25.44;100772.84;3533974;23;20051;-89
2022/07/14 11:21:19;;;;;;;4.18;1.52;;;;;;;36.58;25.10;100773.72;4987153;28;20066;-90
2022/07/14 11:28:21;;;;;;;7.07;1.73;;;;;;;37.58;24.37;100768.38;5030846;23;20037;-87
2022/07/14 11:31:24;;;;;;;4.22;1.60;;;;;;;37.10;24.79;100757.75;5004938;28;20054;-88
2022/07/14 11:38:00;;;;;;;8.45;1.50;;;;;;;36.15;25.35;100760.00;4996816;28;20045;-87
2022/07/14 11:49:21;;;;;;;8.88;1.40;;;;;;;35.12;27.04;100737.81;3748906;26;20054;-87
2022/07/14 11:52:06;;;;;;;8.23;1.95;;;;;;;34.92;27.31;100741.13;4995567;28;20035;-88
2022/07/14 11:55:20;;;;;;;8.65;2.00;;;;;;;34.79;27.50;100736.53;4986988;28;20037;-85
2022/07/14 11:58:16;;;;;;;2.17;1.30;;;;;;;34.58;27.80;100729.94;5014960;28;20026;-85
2022/07/14 12:01:04;;;;;;;6.35;1.50;;;;;;;34.42;28.18;100732.28;5015748;28;20022;-86
2022/07/14 12:03:53;;;;;;;7.82;1.50;;;;;;;34.32;28.22;100735.31;5001499;28;20046;-84
2022/07/14 12:06:53;;;;;;;5.22;1.30;;;;;;;34.39;28.53;100723.84;5006403;28;20025;-86
2022/07/14 12:10:32;;;;;;;5.95;1.58;;;;;;;34.15;29.05;100719.50;5002970;28;20046;-82
2022/07/14 12:13:14;;;;;;;9.63;1.67;;;;;;;34.22;29.26;100714.38;5007146;28;20118;-83
2022/07/14 12:15:42;;;;;;;4.75;1.48;;;;;;;34.18;28.88;100710.63;5009210;28;20046;-82
2022/07/14 12:18:11;;;;;;;3.13;1.70;;;;;;;33.82;29.25;100715.38;5017054;28;20062;-86
2022/07/14 12:20:48;;;;;;;6.13;1.40;;;;;;;33.95;29.19;100713.66;4988986;28;20042;-84
2022/07/14 12:24:33;;;;;;;11.63;1.65;;;;;;;34.14;28.61;100717.09;5016696;28;20077;-83
2022/07/14 12:27:33;;;;;;;5.80;1.95;;;;;;;34.07;28.77;100717.47;5000102;28;20030;-85
2022/07/14 12:30:03;;;;;;;8.45;1.52;;;;;;;33.84;29.34;100715.84;4999039;28;20046;-85
2022/07/14 12:35:59;;;;;;;5.63;1.50;;;;;;;33.91;29.25;100705.22;4999655;28;20073;-86
2022/07/14 12:38:29;;;;;;;4.60;1.60;;;;;;;34.06;29.11;100704.03;5015649;28;20038;-83
2022/07/14 12:40:58;;;;;;;3.03;1.60;;;;;;;33.97;29.51;100706.75;5015319;28;20280;-80
2022/07/14 12:43:46;;;;;;;9.05;1.65;;;;;;;33.76;29.42;100697.38;4977041;28;20054;-83
2022/07/14 12:46:24;;;;;;;8.20;1.40;;;;;;;33.72;29.24;100699.94;4999077;28;20039;-85
2022/07/14 12:48:49;;;;;;;5.93;1.70;;;;;;;33.78;29.44;100697.84;4976426;28;20317;-85
2022/07/14 12:51:22;;;;;;;9.63;1.83;;;;;;;33.65;29.81;100687.72;4976095;28;20038;-82
2022/07/14 12:54:24;;;;;;;4.35;1.80;;;;;;;33.83;29.76;100685.94;4992133;28;20061;-84
2022/07/14 12:57:05;;;;;;;5.20;1.60;;;;;;;33.93;29.49;100678.25;4976529;28;20131;-88
2022/07/14 12:59:44;;;;;;;3.65;1.60;;;;;;;33.75;29.56;100677.31;4990919;28;20035;-83
2022/07/14 13:02:21;;;;;;;5.22;1.80;;;;;;;33.99;29.52;100665.97;4991664;28;20133;-84
2022/07/14 13:05:01;;;;;;;4.68;1.90;;;;;;;34.03;29.61;100666.97;4975081;28;20070;-82
2022/07/14 13:07:32;;;;;;;6.78;1.42;;;;;;;34.11;29.63;100660.72;4991993;28;20094;-86
2022/07/14 13:10:20;;;;;;;4.97;1.70;;;;;;;34.10;29.82;100655.53;4993382;28;20051;-84
2022/07/14 13:13:04;;;;;;;4.50;1.40;;;;;;;34.12;29.58;100651.34;4992113;28;20102;-80
2022/07/14 13:16:25;;;;;;;6.78;1.33;;;;;;;34.22;29.42;100648.34;4978614;28;20066;-84
2022/07/14 13:19:11;;;;;;;7.25;1.77;;;;;;;34.33;29.54;100637.88;4991774;28;20047;-85
2022/07/14 13:22:06;;;;;;;5.05;1.92;;;;;;;34.40;29.36;100642.91;4992370;28;20098;-84
2022/07/14 13:24:38;;;;;;;4.78;1.50;;;;;;;34.43;29.59;100634.03;4963127;28;20059;-83
2022/07/14 13:27:06;;;;;;;6.70;1.95;;;;;;;34.45;29.20;100631.75;4994010;28;20107;-84
2022/07/14 13:29:42;;;;;;;7.10;3.45;;;;;;;34.49;29.63;100624.47;4996120;28;20119;-83
2022/07/14 13:32:35;;;;;;;3.22;1.88;;;;;;;34.62;29.49;100623.59;4995817;28;20054;-80
2022/07/14 13:38:48;;;;;;;9.43;3.45;;;;;;;34.16;29.66;100621.28;4995949;28;20027;-83
2022/07/14 13:41:37;;;;;;;6.03;1.60;;;;;;;34.18;29.54;100619.00;4996165;28;20043;-84
2022/07/14 13:44:22;;;;;;;6.30;2.28;;;;;;;34.12;29.97;100609.28;4995159;28;20046;-84
2022/07/14 13:47:01;;;;;;;4.88;1.70;;;;;;;34.26;29.46;100613.56;4980501;28;20046;-84
2022/07/14 13:52:07;;;;;;;4.22;1.73;;;;;;;34.35;29.54;100607.25;5014804;28;20037;-84
2022/07/14 13:55:21;;;;;;;8.20;2.17;;;;;;;34.20;30.08;100601.06;5530971;23;20059;-83
2022/07/14 13:58:02;;;;;;;5.82;1.65;;;;;;;34.42;29.57;100604.88;4960297;29;20058;-81
2022/07/14 14:00:28;;;;;;;11.02;1.63;;;;;;;34.36;29.73;100592.38;4941489;29;20039;-83
2022/07/14 14:06:35;;;;;;;6.03;1.70;;;;;;;34.35;29.53;100597.06;4974989;29;20095;-83
2022/07/14 14:09:44;;;;;;;3.28;2.10;;;;;;;34.35;29.68;100586.06;4976115;28;20035;-84
2022/07/14 14:12:20;;;;;;;4.18;1.67;;;;;;;34.17;29.94;100587.94;4965067;28;20054;-85
2022/07/14 14:15:06;;;;;;;10.02;2.05;;;;;;;34.20;29.83;100578.25;4974307;29;20047;-86
2022/07/14 14:17:35;;;;;;;7.97;1.73;;;;;;;34.28;29.71;100575.53;4993143;28;20094;-84
2022/07/14 14:20:04;;;;;;;3.28;1.48;;;;;;;34.30;29.79;100574.41;4970948;28;20082;-84
2022/07/14 14:23:02;;;;;;;4.90;1.50;;;;;;;34.55;29.41;100581.91;4941607;29;20038;-87
2022/07/14 14:25:44;;;;;;;13.32;1.90;;;;;;;34.20;29.72;100570.00;4965109;28;20050;-81
2022/07/14 14:28:17;;;;;;;5.75;1.83;;;;;;;34.04;30.22;100575.06;4974933;28;20042;-81
2022/07/14 14:30:55;;;;;;;8.00;1.60;;;;;;;34.22;30.38;100568.53;4992608;28;20047;-83
2022/07/14 14:33:34;;;;;;;8.02;1.75;;;;;;;34.32;30.05;100564.69;4977187;28;20037;-83
2022/07/14 14:36:18;;;;;;;6.90;1.60;;;;;;;34.21;29.97;100558.66;4976660;28;20043;-81
2022/07/14 14:38:51;;;;;;;5.88;1.92;;;;;;;34.15;30.21;100551.69;4974350;28;20061;-82
2022/07/14 14:41:17;;;;;;;5.50;2.20;;;;;;;34.20;30.61;100551.56;4973989;28;20041;-81
2022/07/14 14:43:44;;;;;;;4.78;1.58;;;;;;;34.46;29.80;100561.81;4973238;28;20038;-84
2022/07/14 14:46:37;;;;;;;5.78;2.03;;;;;;;34.35;29.52;100542.03;4992868;28;20043;-84
2022/07/14 14:49:34;;;;;;;6.13;1.80;;;;;;;34.50;29.44;100543.53;4917753;29;20044;-84
2022/07/14 14:52:28;;;;;;;2.92;1.95;;;;;;;34.11;30.15;100542.44;4937981;29;20120;-84
2022/07/14 14:55:57;;;;;;;6.90;1.90;;;;;;;34.22;29.76;100537.47;4943026;29;20044;-90
2022/07/14 14:59:05;;;;;;;5.05;1.40;;;;;;;34.15;29.95;100526.09;4872658;29;20034;-87
2022/07/14 15:10:54;;;;;;;7.32;1.90;;;;;;;34.28;30.17;100509.47;4065522;26;20053;-88
2022/07/14 15:17:52;;;;;;;8.00;2.00;;;;;;;34.53;29.67;100512.59;4978815;28;20055;-88
2022/07/14 15:24:12;;;;;;;5.65;1.55;;;;;;;34.40;30.46;100497.03;5038321;23;20102;-86
2022/07/14 15:31:33;;;;;;;8.05;1.83;;;;;;;34.24;30.83;100496.66;5346707;22;20055;-89
2022/07/14 15:41:36;;;;;;;4.05;1.90;;;;;;;34.38;29.80;100485.53;4980611;28;20058;-89
2022/07/14 15:55:35;;;;;;;4.10;1.90;;;;;;;34.08;30.39;100470.69;5209954;23;20050;-87
2022/07/14 16:10:18;;;;;;;8.93;1.67;;;;;;;33.80;30.91;100448.16;5319391;23;20043;-84
2022/07/14 16:12:56;;;;;;;6.28;1.63;;;;;;;33.69;30.46;100449.56;4998730;28;20066;-86
2022/07/14 16:16:04;;;;;;;5.75;1.83;;;;;;;33.64;31.01;100438.72;4953550;28;20046;-86
2022/07/14 16:19:14;;;;;;;6.38;1.80;;;;;;;33.81;30.82;100438.75;4998216;28;20047;-86
2022/07/14 16:22:13;;;;;;;10.70;1.88;;;;;;;33.91;30.74;100434.94;4981044;28;20045;-86
2022/07/14 16:24:49;;;;;;;7.28;1.58;;;;;;;34.01;31.72;100431.84;4982716;28;20090;-87